createdAt,value
2018-12-03T00:01:45.703Z,13.30
2018-12-03T00:04:13.874Z,13.30
2018-12-03T00:06:42.304Z,13.30
2018-12-03T00:09:10.462Z,13.30
2018-12-03T00:11:38.702Z,13.30
2018-12-03T00:14:07.003Z,13.30
2018-12-03T00:16:35.161Z,13.20
2018-12-03T00:19:03.887Z,13.30
2018-12-03T00:21:32.171Z,13.30
2018-12-03T00:24:00.343Z,13.30
2018-12-03T00:26:28.530Z,13.30
2018-12-03T00:28:56.970Z,13.30
2018-12-03T00:31:31.827Z,13.30
2018-12-03T00:33:59.966Z,13.30
2018-12-03T00:36:28.277Z,13.30
2018-12-03T00:38:56.425Z,13.30
2018-12-03T00:41:24.605Z,13.30
2018-12-03T00:43:52.739Z,13.30
2018-12-03T00:46:20.862Z,13.30
2018-12-03T00:48:48.971Z,13.40
2018-12-03T00:51:17.165Z,13.40
2018-12-03T00:53:45.322Z,13.40
2018-12-03T00:56:13.465Z,13.40
2018-12-03T00:58:42.230Z,13.40
2018-12-03T01:01:10.440Z,13.50
2018-12-03T01:03:38.644Z,13.50
2018-12-03T01:06:06.878Z,13.50
2018-12-03T01:08:34.990Z,13.50
2018-12-03T01:11:03.133Z,13.50
2018-12-03T01:13:31.498Z,13.40
2018-12-03T01:15:59.652Z,13.40
2018-12-03T01:18:27.989Z,13.40
2018-12-03T01:20:56.112Z,13.40
2018-12-03T01:23:24.312Z,13.30
2018-12-03T01:25:52.474Z,13.30
2018-12-03T01:28:20.869Z,13.40
2018-12-03T01:30:48.996Z,13.30
2018-12-03T01:33:17.131Z,13.40
2018-12-03T01:35:45.221Z,13.30
2018-12-03T01:38:13.428Z,13.40
2018-12-03T01:40:41.621Z,13.40
2018-12-03T01:43:09.762Z,13.40
2018-12-03T01:45:37.897Z,13.40
2018-12-03T01:48:06.109Z,13.50
2018-12-03T01:50:34.221Z,13.40
2018-12-03T01:53:02.339Z,13.40
2018-12-03T01:55:30.646Z,13.50
2018-12-03T01:57:58.823Z,13.40
2018-12-03T02:00:26.891Z,13.40
2018-12-03T02:02:55.040Z,13.40
2018-12-03T02:05:23.142Z,13.50
2018-12-03T02:07:51.405Z,13.50
2018-12-03T02:10:19.489Z,13.50
2018-12-03T02:12:47.837Z,13.50
2018-12-03T02:15:15.993Z,13.50
2018-12-03T02:17:44.259Z,13.50
2018-12-03T02:20:14.499Z,13.50
2018-12-03T02:22:42.594Z,13.50
2018-12-03T02:25:10.915Z,13.50
2018-12-03T02:27:39.001Z,13.50
2018-12-03T02:30:15.106Z,13.50
2018-12-03T02:32:43.715Z,13.50
2018-12-03T02:35:13.057Z,13.50
2018-12-03T02:37:41.255Z,13.50
2018-12-03T02:40:12.356Z,13.50
2018-12-03T02:42:40.462Z,13.50
2018-12-03T02:45:10.672Z,13.50
2018-12-03T02:47:38.842Z,13.50
2018-12-03T02:50:10.184Z,13.50
2018-12-03T02:52:38.459Z,13.40
2018-12-03T02:55:08.062Z,13.40
2018-12-03T02:57:36.212Z,13.40
2018-12-03T03:00:08.125Z,13.30
2018-12-03T03:02:36.309Z,13.30
2018-12-03T03:05:06.620Z,13.30
2018-12-03T03:07:34.747Z,13.30
2018-12-03T03:10:04.301Z,13.30
2018-12-03T03:12:32.532Z,13.30
2018-12-03T03:15:00.651Z,13.30
2018-12-03T03:17:35.407Z,13.30
2018-12-03T03:20:03.661Z,13.30
2018-12-03T03:22:37.939Z,13.30
2018-12-03T03:25:07.209Z,13.30
2018-12-03T03:27:35.424Z,13.20
2018-12-03T03:30:05.794Z,13.10
2018-12-03T03:32:34.989Z,13.20
2018-12-03T03:35:02.056Z,13.30
2018-12-03T03:37:30.243Z,13.30
2018-12-03T03:39:58.366Z,13.30
2018-12-03T03:42:26.536Z,13.40
2018-12-03T03:44:54.669Z,13.40
2018-12-03T03:47:22.771Z,13.40
2018-12-03T03:49:50.919Z,13.40
2018-12-03T03:52:19.013Z,13.40
2018-12-03T03:54:47.200Z,13.40
2018-12-03T03:57:15.372Z,13.40
2018-12-03T03:59:43.472Z,13.40
2018-12-03T04:02:11.552Z,13.40
2018-12-03T04:04:39.658Z,13.40
2018-12-03T04:07:07.763Z,13.40
2018-12-03T04:09:35.847Z,13.40
2018-12-03T04:12:04.048Z,13.50
2018-12-03T04:14:32.197Z,13.50
2018-12-03T04:17:00.294Z,13.50
2018-12-03T04:19:28.412Z,13.50
2018-12-03T04:21:56.593Z,13.50
2018-12-03T04:24:24.784Z,13.50
2018-12-03T04:26:53.027Z,13.50
2018-12-03T04:29:21.175Z,13.50
2018-12-03T04:31:49.502Z,13.50
2018-12-03T04:34:17.643Z,13.50
2018-12-03T04:36:45.735Z,13.50
2018-12-03T04:39:13.838Z,13.50
2018-12-03T04:41:42.027Z,13.50
2018-12-03T04:44:10.141Z,13.50
2018-12-03T04:46:38.229Z,13.60
2018-12-03T04:49:06.337Z,13.50
2018-12-03T04:51:34.441Z,13.50
2018-12-03T04:54:02.532Z,13.50
2018-12-03T04:56:30.716Z,13.50
2018-12-03T04:58:58.904Z,13.50
2018-12-03T05:01:26.986Z,13.50
2018-12-03T05:03:55.070Z,13.50
2018-12-03T05:06:23.214Z,13.50
2018-12-03T05:08:51.565Z,13.50
2018-12-03T05:11:19.739Z,13.40
2018-12-03T05:13:48.007Z,13.30
2018-12-03T05:16:16.097Z,13.30
2018-12-03T05:18:44.237Z,13.30
2018-12-03T05:21:12.420Z,13.30
2018-12-03T05:23:40.821Z,13.30
2018-12-03T05:26:08.996Z,13.20
2018-12-03T05:28:37.132Z,13.20
2018-12-03T05:31:05.517Z,13.20
2018-12-03T05:33:33.822Z,13.10
2018-12-03T05:36:01.976Z,13.10
2018-12-03T05:38:30.243Z,13.10
2018-12-03T05:40:58.813Z,13.10
2018-12-03T05:43:27.002Z,13.10
2018-12-03T05:45:55.109Z,13.10
2018-12-03T05:48:23.260Z,13.20
2018-12-03T05:50:51.427Z,13.20
2018-12-03T05:53:19.580Z,13.10
2018-12-03T05:55:47.715Z,13.00
2018-12-03T05:58:15.843Z,13.00
2018-12-03T06:00:43.931Z,13.00
2018-12-03T06:03:12.109Z,13.00
2018-12-03T06:05:40.230Z,13.00
2018-12-03T06:08:08.419Z,13.00
2018-12-03T06:10:36.744Z,13.00
2018-12-03T06:13:05.219Z,12.90
2018-12-03T06:15:33.352Z,12.90
2018-12-03T06:18:01.505Z,12.90
2018-12-03T06:20:29.670Z,12.90
2018-12-03T06:22:57.756Z,12.90
2018-12-03T06:25:27.415Z,12.90
2018-12-03T06:27:55.642Z,12.90
2018-12-03T06:30:24.060Z,12.90
2018-12-03T06:32:52.208Z,12.90
2018-12-03T06:35:20.766Z,12.90
2018-12-03T06:37:49.383Z,12.90
2018-12-03T06:40:19.750Z,12.90
2018-12-03T06:42:47.844Z,12.90
2018-12-03T06:45:18.254Z,12.80
2018-12-03T06:47:48.741Z,12.80
2018-12-03T06:50:23.553Z,12.80
2018-12-03T06:52:51.649Z,12.70
2018-12-03T06:55:19.865Z,12.70
2018-12-03T06:57:48.118Z,12.70
2018-12-03T07:00:17.525Z,12.60
2018-12-03T07:02:45.667Z,12.60
2018-12-03T07:05:13.782Z,12.60
2018-12-03T07:07:43.137Z,12.50
2018-12-03T07:10:15.478Z,12.50
2018-12-03T07:12:44.416Z,12.50
2018-12-03T07:15:15.197Z,12.40
2018-12-03T07:17:43.335Z,12.40
2018-12-03T07:20:12.183Z,12.40
2018-12-03T07:22:40.623Z,12.40
2018-12-03T07:25:09.993Z,12.40
2018-12-03T07:27:38.356Z,12.40
2018-12-03T07:30:15.406Z,12.40
2018-12-03T07:32:44.569Z,12.30
2018-12-03T07:35:12.722Z,12.40
2018-12-03T07:37:40.932Z,12.30
2018-12-03T07:40:10.166Z,12.30
2018-12-03T07:42:38.830Z,12.30
2018-12-03T07:45:09.907Z,12.30
2018-12-03T07:47:38.083Z,12.20
2018-12-03T07:50:08.916Z,12.20
2018-12-03T07:52:37.177Z,12.20
2018-12-03T07:55:10.800Z,12.10
2018-12-03T07:57:40.382Z,12.10
2018-12-03T08:00:12.020Z,12.00
2018-12-03T08:02:40.220Z,12.00
2018-12-03T08:05:09.431Z,11.90
2018-12-03T08:07:37.584Z,11.90
2018-12-03T08:10:09.449Z,11.90
2018-12-03T08:12:37.611Z,11.90
2018-12-03T08:15:10.103Z,11.90
2018-12-03T08:17:38.183Z,11.90
2018-12-03T08:20:16.254Z,12.00
2018-12-03T08:22:45.363Z,12.00
2018-12-03T08:25:13.526Z,12.10
2018-12-03T08:27:41.693Z,12.10
2018-12-03T08:30:11.611Z,12.10
2018-12-03T08:32:39.744Z,12.20
2018-12-03T08:35:10.931Z,12.20
2018-12-03T08:37:39.269Z,12.20
2018-12-03T08:40:18.797Z,12.30
2018-12-03T08:42:53.038Z,12.30
2018-12-03T08:45:22.275Z,12.40
2018-12-03T08:47:51.018Z,12.50
2018-12-03T08:50:21.479Z,12.70
2018-12-03T08:52:49.954Z,12.80
2018-12-03T08:55:18.130Z,12.90
2018-12-03T08:57:46.250Z,13.00
2018-12-03T09:00:18.594Z,13.00
2018-12-03T09:02:52.468Z,13.10
2018-12-03T09:05:20.690Z,13.10
2018-12-03T09:07:48.821Z,13.20
2018-12-03T09:10:17.589Z,13.20
2018-12-03T09:12:45.781Z,13.30
2018-12-03T09:15:13.905Z,13.30
2018-12-03T09:17:42.345Z,13.40
2018-12-03T09:20:10.499Z,13.40
2018-12-03T09:22:38.631Z,13.40
2018-12-03T09:25:13.219Z,13.40
2018-12-03T09:27:41.562Z,13.40
2018-12-03T09:30:09.756Z,13.50
2018-12-03T09:32:37.878Z,13.50
2018-12-03T09:35:08.025Z,13.50
2018-12-03T09:37:36.222Z,13.50
2018-12-03T09:40:07.937Z,13.50
2018-12-03T09:42:36.095Z,13.60
2018-12-03T09:45:10.372Z,13.60
2018-12-03T09:47:39.423Z,13.60
2018-12-03T09:50:15.542Z,13.70
2018-12-03T09:52:43.743Z,13.70
2018-12-03T09:55:20.140Z,13.70
2018-12-03T09:57:56.519Z,13.70
2018-12-03T10:00:24.666Z,13.70
2018-12-03T10:02:53.352Z,13.80
2018-12-03T10:05:22.307Z,13.70
2018-12-03T10:07:50.534Z,13.80
2018-12-03T10:10:18.649Z,13.80
2018-12-03T10:12:46.771Z,13.70
2018-12-03T10:15:14.875Z,13.60
2018-12-03T10:17:47.315Z,13.60
2018-12-03T10:20:15.427Z,13.50
2018-12-03T10:22:48.061Z,13.50
2018-12-03T10:25:16.285Z,13.40
2018-12-03T10:27:44.416Z,13.40
2018-12-03T10:30:15.556Z,13.40
2018-12-03T10:32:43.895Z,13.40
2018-12-03T10:35:11.781Z,13.40
2018-12-03T10:37:39.892Z,13.50
2018-12-03T10:40:20.051Z,13.50
2018-12-03T10:42:48.989Z,13.50
2018-12-03T10:45:19.235Z,13.50
2018-12-03T10:47:47.415Z,13.50
2018-12-03T10:50:22.184Z,13.40
2018-12-03T10:52:46.210Z,13.40
2018-12-03T10:55:14.421Z,13.40
2018-12-03T10:57:44.032Z,13.40
2018-12-03T11:00:14.228Z,13.40
2018-12-03T11:02:42.393Z,13.30
2018-12-03T11:07:48.559Z,13.30
2018-12-03T11:10:16.876Z,13.60
2018-12-03T11:12:49.968Z,13.80
2018-12-03T11:15:18.543Z,14.00
2018-12-03T11:17:46.728Z,14.10
2018-12-03T11:20:14.918Z,14.10
2018-12-03T11:22:43.912Z,14.20
2018-12-03T11:25:15.710Z,14.30
2018-12-03T11:27:46.360Z,14.30
2018-12-03T11:30:14.544Z,14.40
2018-12-03T11:32:42.882Z,14.40
2018-12-03T11:35:11.698Z,14.50
2018-12-03T11:37:42.946Z,14.50
2018-12-03T11:40:44.551Z,14.40
2018-12-03T11:43:12.705Z,14.40
2018-12-03T11:45:40.895Z,14.40
2018-12-03T11:48:09.099Z,14.30
2018-12-03T11:50:37.660Z,14.30
2018-12-03T11:53:05.873Z,14.30
2018-12-03T11:55:33.963Z,14.30
2018-12-03T11:58:02.451Z,14.40
2018-12-03T12:00:30.736Z,14.40
2018-12-03T12:02:58.936Z,14.40
2018-12-03T12:05:27.052Z,14.40
2018-12-03T12:07:55.197Z,14.50
2018-12-03T12:10:23.318Z,14.60
2018-12-03T12:12:51.512Z,14.70
2018-12-03T12:15:19.663Z,14.70
2018-12-03T12:17:47.858Z,14.70
2018-12-03T12:20:16.039Z,14.60
2018-12-03T12:22:44.296Z,14.50
2018-12-03T12:25:12.983Z,14.50
2018-12-03T12:27:43.471Z,14.60
2018-12-03T12:30:13.417Z,14.60
2018-12-03T12:32:41.554Z,14.60
2018-12-03T12:35:12.899Z,14.70
2018-12-03T12:37:42.177Z,14.80
2018-12-03T12:40:11.769Z,14.80
2018-12-03T12:42:40.778Z,14.90
2018-12-03T12:45:19.663Z,14.80
2018-12-03T12:47:48.022Z,14.80
2018-12-03T12:50:17.342Z,14.70
2018-12-03T12:52:45.469Z,14.70
2018-12-03T12:55:13.715Z,14.70
2018-12-03T12:57:41.911Z,14.70
2018-12-03T13:00:14.895Z,14.70
2018-12-03T13:02:44.660Z,14.70
2018-12-03T13:05:12.860Z,14.80
2018-12-03T13:07:41.991Z,14.80
2018-12-03T13:10:12.981Z,14.80
2018-12-03T13:12:41.276Z,14.80
2018-12-03T13:15:12.126Z,14.80
2018-12-03T13:17:42.167Z,14.80
2018-12-03T13:20:12.025Z,14.80
2018-12-03T13:22:40.223Z,14.80
2018-12-03T13:25:10.203Z,14.80
2018-12-03T13:27:38.457Z,14.80
2018-12-03T13:30:10.234Z,14.80
2018-12-03T13:32:38.387Z,14.80
2018-12-03T13:35:08.352Z,14.70
2018-12-03T13:37:36.587Z,14.70
2018-12-03T13:40:08.298Z,14.60
2018-12-03T13:42:36.404Z,14.50
2018-12-03T13:45:06.016Z,14.50
2018-12-03T13:47:34.149Z,14.40
2018-12-03T13:50:02.450Z,14.30
2018-12-03T13:52:30.646Z,14.20
2018-12-03T13:54:58.864Z,14.20
2018-12-03T13:57:27.204Z,14.10
2018-12-03T13:59:55.515Z,14.00
2018-12-03T14:02:23.740Z,13.90
2018-12-03T14:04:51.923Z,13.80
2018-12-03T14:07:28.653Z,13.60
2018-12-03T14:10:34.479Z,13.60
2018-12-03T14:13:27.424Z,13.50
2018-12-03T14:17:12.663Z,13.50
2018-12-03T14:19:44.397Z,13.60
2018-12-03T14:22:15.879Z,13.60
2018-12-03T14:24:44.044Z,13.60
2018-12-03T14:27:12.172Z,13.60
2018-12-03T14:29:40.468Z,13.70
2018-12-03T14:32:08.676Z,13.70
2018-12-03T14:34:36.815Z,13.70
2018-12-03T14:37:05.020Z,13.80
2018-12-03T14:39:33.144Z,13.70
2018-12-03T14:42:01.277Z,13.70
2018-12-03T14:44:29.466Z,13.70
2018-12-03T14:46:57.721Z,13.60
2018-12-03T14:49:25.849Z,13.60
2018-12-03T14:51:54.166Z,13.50
2018-12-03T14:54:22.269Z,13.50
2018-12-03T14:56:50.415Z,13.50
2018-12-03T14:59:18.537Z,13.40
2018-12-03T15:01:46.702Z,13.40
2018-12-03T15:04:14.935Z,13.30
2018-12-03T15:06:43.355Z,13.40
2018-12-03T15:09:11.792Z,13.40
2018-12-03T15:11:39.931Z,13.40
2018-12-03T15:14:08.128Z,13.30
2018-12-03T15:16:37.467Z,13.30
2018-12-03T15:19:11.465Z,13.20
2018-12-03T15:21:33.712Z,13.30
2018-12-03T15:24:02.075Z,13.20
2018-12-03T15:26:30.223Z,13.20
2018-12-03T15:28:58.496Z,13.10
2018-12-03T15:31:26.715Z,13.10
2018-12-03T15:33:54.988Z,13.10
2018-12-03T15:36:23.157Z,13.10
2018-12-03T15:38:51.273Z,13.10
2018-12-03T15:41:19.563Z,13.10
2018-12-03T15:43:47.741Z,13.10
2018-12-03T15:46:15.909Z,13.10
2018-12-03T15:48:44.006Z,13.10
2018-12-03T15:51:12.188Z,13.10
2018-12-03T15:53:40.398Z,13.00
2018-12-03T15:56:08.574Z,13.10
2018-12-03T15:58:36.663Z,13.10
2018-12-03T16:01:04.946Z,13.10
2018-12-03T16:03:33.061Z,13.10
2018-12-03T16:06:01.178Z,13.10
2018-12-03T16:08:29.272Z,13.00
2018-12-03T16:10:57.462Z,13.00
2018-12-03T16:13:25.544Z,12.90
2018-12-03T16:15:53.693Z,12.90
2018-12-03T16:18:21.821Z,12.80
2018-12-03T16:20:49.946Z,12.80
2018-12-03T16:23:18.088Z,12.80
2018-12-03T16:25:46.262Z,12.70
2018-12-03T16:28:14.607Z,12.60
2018-12-03T16:30:42.793Z,12.60
2018-12-03T16:33:10.907Z,12.50
2018-12-03T16:35:39.074Z,12.50
2018-12-03T16:38:07.211Z,12.40
2018-12-03T16:40:35.506Z,12.40
2018-12-03T16:43:03.784Z,12.40
2018-12-03T16:45:32.013Z,12.40
2018-12-03T16:48:00.145Z,12.40
2018-12-03T16:50:28.464Z,12.40
2018-12-03T16:52:56.593Z,12.50
2018-12-03T16:55:24.742Z,12.40
2018-12-03T16:57:52.836Z,12.50
2018-12-03T17:00:21.012Z,12.50
2018-12-03T17:02:49.209Z,12.50
2018-12-03T17:05:17.346Z,12.50
2018-12-03T17:07:45.464Z,12.40
2018-12-03T17:10:15.519Z,12.40
2018-12-03T17:12:43.799Z,12.40
2018-12-03T17:15:12.144Z,12.40
2018-12-03T17:17:40.347Z,12.40
2018-12-03T17:20:47.024Z,12.40
2018-12-03T17:23:29.293Z,12.40
2018-12-03T17:25:57.496Z,12.30
2018-12-03T17:28:25.716Z,12.30
2018-12-03T17:30:53.852Z,12.30
2018-12-03T17:33:21.943Z,12.30
2018-12-03T17:35:50.081Z,12.20
2018-12-03T17:38:18.327Z,12.20
2018-12-03T17:40:46.507Z,12.20
2018-12-03T17:43:14.612Z,12.20
2018-12-03T17:45:42.789Z,12.20
2018-12-03T17:48:10.899Z,12.20
2018-12-03T17:50:39.130Z,12.20
2018-12-03T17:53:07.273Z,12.20
2018-12-03T17:55:35.455Z,12.20
2018-12-03T17:58:03.555Z,12.10
2018-12-03T18:00:31.799Z,12.10
2018-12-03T18:02:59.874Z,12.10
2018-12-03T18:05:27.991Z,12.10
2018-12-03T18:07:56.130Z,12.10
2018-12-03T18:10:24.423Z,12.10
2018-12-03T18:12:52.545Z,12.20
2018-12-03T18:15:20.776Z,12.20
2018-12-03T18:17:48.876Z,12.30
2018-12-03T18:20:16.996Z,12.30
2018-12-03T18:22:45.211Z,12.30
2018-12-03T18:25:13.502Z,12.30
2018-12-03T18:27:41.809Z,12.40
2018-12-03T18:30:09.950Z,12.30
2018-12-03T18:32:38.365Z,12.40
2018-12-03T18:35:06.685Z,12.30
2018-12-03T18:37:34.797Z,12.30
2018-12-03T18:40:03.007Z,12.30
2018-12-03T18:42:31.256Z,12.30
2018-12-03T18:44:59.403Z,12.30
2018-12-03T18:47:27.544Z,12.30
2018-12-03T18:49:58.527Z,12.30
2018-12-03T18:52:26.822Z,12.30
2018-12-03T18:54:55.095Z,12.30
2018-12-03T18:57:23.367Z,12.30
2018-12-03T18:59:51.547Z,12.30
2018-12-03T19:02:19.717Z,12.30
2018-12-03T19:04:47.909Z,12.30
2018-12-03T19:07:16.064Z,12.40
2018-12-03T19:09:44.200Z,12.40
2018-12-03T19:12:12.325Z,12.40
2018-12-03T19:14:40.657Z,12.40
2018-12-03T19:17:08.841Z,12.30
2018-12-03T19:19:37.039Z,12.30
2018-12-03T19:22:05.343Z,12.30
2018-12-03T19:24:33.496Z,12.20
2018-12-03T19:27:01.645Z,12.20
2018-12-03T19:29:30.217Z,12.20
2018-12-03T19:31:58.378Z,12.20
2018-12-03T19:34:26.655Z,12.20
2018-12-03T19:36:55.791Z,12.20
2018-12-03T19:39:24.126Z,12.20
2018-12-03T19:41:52.235Z,12.20
2018-12-03T19:44:20.434Z,12.20
2018-12-03T19:46:48.549Z,12.20
2018-12-03T19:49:17.340Z,12.20
2018-12-03T19:51:46.773Z,12.20
2018-12-03T19:54:16.445Z,12.30
2018-12-03T19:56:44.693Z,12.30
2018-12-03T19:59:12.926Z,12.40
2018-12-03T20:01:41.407Z,12.40
2018-12-03T20:04:18.855Z,12.40
2018-12-03T20:06:47.226Z,12.40
2018-12-03T20:09:15.358Z,12.40
2018-12-03T20:11:43.568Z,12.40
2018-12-03T20:14:11.757Z,12.40
2018-12-03T20:16:39.951Z,12.30
2018-12-03T20:19:08.094Z,12.30
2018-12-03T20:21:36.272Z,12.40
2018-12-03T20:24:08.627Z,12.30
2018-12-03T20:27:14.487Z,12.30
2018-12-03T20:29:51.275Z,12.30
2018-12-03T20:32:42.813Z,12.30
2018-12-03T20:35:15.420Z,12.30
2018-12-03T20:40:01.992Z,12.30
2018-12-03T20:42:33.881Z,12.30
2018-12-03T20:45:41.449Z,12.20
2018-12-03T20:48:09.617Z,12.20
2018-12-03T20:51:00.627Z,12.30
2018-12-03T20:53:32.592Z,12.30
2018-12-03T20:56:02.883Z,12.30
2018-12-03T20:58:31.170Z,12.30
2018-12-03T21:00:59.294Z,12.20
2018-12-03T21:03:27.404Z,12.20
2018-12-03T21:05:55.539Z,12.20
2018-12-03T21:08:23.732Z,12.10
2018-12-03T21:10:51.990Z,12.10
2018-12-03T21:13:20.627Z,12.00
2018-12-03T21:15:48.836Z,12.00
2018-12-03T21:18:16.948Z,12.00
2018-12-03T21:20:47.425Z,12.00
2018-12-03T21:23:15.656Z,12.00
2018-12-03T21:25:43.882Z,12.00
2018-12-03T21:28:12.140Z,12.00
2018-12-03T21:30:40.268Z,12.00
2018-12-03T21:33:08.441Z,12.00
2018-12-03T21:35:36.602Z,11.90
2018-12-03T21:38:04.897Z,11.90
2018-12-03T21:40:33.037Z,11.90
2018-12-03T21:43:01.181Z,11.90
2018-12-03T21:45:29.345Z,11.90
2018-12-03T21:47:57.484Z,11.90
2018-12-03T21:50:25.615Z,11.90
2018-12-03T21:52:53.759Z,11.80
2018-12-03T21:55:21.888Z,11.80
2018-12-03T21:57:51.453Z,11.80
2018-12-03T22:00:19.547Z,11.80
2018-12-03T22:02:47.855Z,11.80
2018-12-03T22:05:15.996Z,11.80
2018-12-03T22:07:44.198Z,11.80
2018-12-03T22:10:12.315Z,11.80
2018-12-03T22:12:40.437Z,11.90
2018-12-03T22:15:08.680Z,11.90
2018-12-03T22:17:36.860Z,11.80
2018-12-03T22:20:08.259Z,11.80
2018-12-03T22:22:36.456Z,11.80
2018-12-03T22:25:04.831Z,11.80
2018-12-03T22:27:33.009Z,11.80
2018-12-03T22:30:01.178Z,11.80
2018-12-03T22:32:29.331Z,11.80
2018-12-03T22:34:57.482Z,11.80
2018-12-03T22:37:25.657Z,11.80
2018-12-03T22:39:53.782Z,11.80
2018-12-03T22:42:21.945Z,11.70
2018-12-03T22:44:50.089Z,11.80
2018-12-03T22:47:18.183Z,11.80
2018-12-03T22:49:46.341Z,11.80
2018-12-03T22:52:14.476Z,11.70
2018-12-03T22:54:42.914Z,11.70
2018-12-03T22:57:11.051Z,11.70
2018-12-03T22:59:39.252Z,11.60
2018-12-03T23:02:07.426Z,11.50
2018-12-03T23:04:35.647Z,11.50
2018-12-03T23:07:03.745Z,11.50
2018-12-03T23:09:31.915Z,11.50
2018-12-03T23:12:00.042Z,11.40
2018-12-03T23:14:28.143Z,11.40
2018-12-03T23:16:56.311Z,11.40
2018-12-03T23:19:24.491Z,11.30
2018-12-03T23:21:52.640Z,11.30
2018-12-03T23:24:20.733Z,11.20
2018-12-03T23:26:49.136Z,11.20
2018-12-03T23:29:17.220Z,11.10
2018-12-03T23:31:45.327Z,11.00
2018-12-03T23:34:13.409Z,10.90
2018-12-03T23:36:41.725Z,10.80
2018-12-03T23:39:09.983Z,10.60
2018-12-03T23:41:38.091Z,10.60
2018-12-03T23:44:06.212Z,10.50
2018-12-03T23:46:34.333Z,10.40
2018-12-03T23:49:02.594Z,10.20
2018-12-03T23:51:36.041Z,10.10
2018-12-03T23:53:58.998Z,10.00
2018-12-03T23:56:27.123Z,10.00
2018-12-03T23:58:55.305Z,9.90
